< Typhoon 199327 1993 Season Typhoon 199401 >
Typhoon 199328 (NELL)
General InformationTrack Information on Google MapsDetailed Wind InformationList of All Images || Disaster Info.ResourceGoogle EarthGE AnimationAtom FeedGeoJSON
Detalied Best Track (Time Zone = UTC)
Year Month Day Hour Lat. Long. Pressure (hPa) Wind (kt) Class Image Chart
1993 12 20 18 7.0 150.2 1004 0 2 Image Chart
1993 12 21 00 6.8 149.0 1004 0 2 Image Chart
1993 12 21 06 6.6 148.1 1004 0 2 Image Chart
1993 12 21 12 6.6 147.0 1004 0 2 Image Chart
1993 12 21 18 6.8 145.9 1004 0 2 Image Chart
1993 12 22 00 7.2 145.1 1004 0 2 Image Chart
1993 12 22 06 7.5 144.5 1004 0 2 Image Chart
1993 12 22 12 7.8 143.8 1002 0 2 Image Chart
1993 12 22 18 7.9 143.1 1002 0 2 Image Chart
1993 12 23 00 7.8 142.4 1002 0 2 Image Chart
1993 12 23 06 7.5 141.4 1000 0 2 Image Chart
1993 12 23 12 7.4 140.4 1000 0 2 Image Chart
1993 12 23 18 7.5 139.6 1000 0 2 Image Chart
1993 12 24 00 7.8 138.6 1000 0 2 Image Chart
1993 12 24 06 8.1 137.4 1000 0 2 Image Chart
1993 12 24 12 8.3 136.1 1000 0 2 Image Chart
1993 12 24 18 8.3 134.6 998 0 2 Image Chart
1993 12 25 00 8.4 132.9 996 40 3 Image Chart
1993 12 25 06 8.6 131.3 985 50 4 Image Chart
1993 12 25 12 8.7 129.7 980 55 4 Image Chart
1993 12 25 18 8.9 128.1 980 55 4 Image Chart
1993 12 26 00 9.3 126.7 980 55 4 Image Chart
1993 12 26 06 9.7 125.6 975 60 4 Image Chart
1993 12 26 12 10.4 124.3 975 60 4 Image Chart
1993 12 26 18 11.0 123.1 975 60 4 Image Chart
1993 12 27 00 11.3 122.0 975 60 4 Image Chart
1993 12 27 06 11.6 120.9 980 55 4 Image Chart
1993 12 27 12 11.7 119.9 985 50 4 Image Chart
1993 12 27 18 11.6 118.9 985 50 4 Image Chart
1993 12 28 00 11.5 118.1 990 45 3 Image Chart
1993 12 28 06 11.3 117.5 994 35 3 Image Chart
1993 12 28 12 11.0 117.0 998 0 2 Image Chart
1993 12 28 18 10.7 116.6 1002 0 2 Image Chart
1993 12 29 00 10.4 116.4 1004 0 2 Image Chart
1993 12 29 06 10.2 116.3 1004 0 2 Image Chart
1993 12 29 12 10.1 116.1 1004 0 2 Image Chart
1993 12 29 18 10.0 115.8 1004 0 2 Image Chart
1993 12 30 00 10.0 115.4 1004 0 2 Image Chart
1993 12 30 06 10.0 115.0 1004 0 2 Image Chart
1993 12 30 12 9.8 114.5 1004 0 2 Image Chart
1993 12 30 18 9.5 114.0 1006 0 2 Image Chart
1993 12 31 00 9.2 113.5 1006 0 2 Image Chart
1993 12 31 06 8.9 113.0 1006 0 2 Image Chart
1993 12 31 12 8.6 112.6 1008 0 2 Image Chart
1993 12 31 18 8.2 112.3 1008 0 2 Image Chart
1994 1 1 00 7.8 112.1 1008 0 2 Image Chart
1994 1 1 06 7.5 112.0 1008 0 2 Image Chart
Japan Meteorological Agency Best Track Data | Correction Date : 1994-03-15
< Typhoon 199327 1993 Season Typhoon 199401 >

Help